sensor_id;sensor_type;location;lat;lon;timestamp;P1;durP1;ratioP1;P2;durP2;ratioP2
48026;SDS011;50714;49.208;5.364;2023-10-09T00:04:01;2.70;;;2.13;;
48026;SDS011;50714;49.208;5.364;2023-10-09T00:14:03;3.30;;;2.30;;
48026;SDS011;50714;49.208;5.364;2023-10-09T00:24:05;3.78;;;2.30;;
48026;SDS011;50714;49.208;5.364;2023-10-09T00:44:19;2.08;;;1.77;;
48026;SDS011;50714;49.208;5.364;2023-10-09T00:54:19;3.80;;;2.50;;
48026;SDS011;50714;49.208;5.364;2023-10-09T01:04:20;3.63;;;2.70;;
48026;SDS011;50714;49.208;5.364;2023-10-09T01:14:22;2.10;;;1.75;;
48026;SDS011;50714;49.208;5.364;2023-10-09T01:24:23;2.30;;;1.70;;
48026;SDS011;50714;49.208;5.364;2023-10-09T01:34:29;1.65;;;1.48;;
48026;SDS011;50714;49.208;5.364;2023-10-09T01:44:45;2.42;;;1.52;;
48026;SDS011;50714;49.208;5.364;2023-10-09T01:54:50;1.63;;;1.52;;
48026;SDS011;50714;49.208;5.364;2023-10-09T02:04:58;1.73;;;1.38;;
48026;SDS011;50714;49.208;5.364;2023-10-09T02:15:14;1.45;;;1.27;;
48026;SDS011;50714;49.208;5.364;2023-10-09T02:25:15;2.20;;;1.63;;
48026;SDS011;50714;49.208;5.364;2023-10-09T02:35:20;2.25;;;1.60;;
48026;SDS011;50714;49.208;5.364;2023-10-09T02:45:39;1.90;;;1.40;;
48026;SDS011;50714;49.208;5.364;2023-10-09T02:55:50;2.10;;;1.50;;
48026;SDS011;50714;49.208;5.364;2023-10-09T03:06:02;1.73;;;1.35;;
48026;SDS011;50714;49.208;5.364;2023-10-09T03:16:11;2.08;;;1.35;;
48026;SDS011;50714;49.208;5.364;2023-10-09T03:26:18;1.63;;;1.30;;
48026;SDS011;50714;49.208;5.364;2023-10-09T03:36:19;1.98;;;1.48;;
48026;SDS011;50714;49.208;5.364;2023-10-09T03:46:20;2.13;;;1.30;;
48026;SDS011;50714;49.208;5.364;2023-10-09T03:56:22;2.53;;;1.45;;
48026;SDS011;50714;49.208;5.364;2023-10-09T04:06:23;1.98;;;1.50;;
48026;SDS011;50714;49.208;5.364;2023-10-09T04:16:28;1.48;;;1.30;;
48026;SDS011;50714;49.208;5.364;2023-10-09T04:26:31;1.65;;;1.30;;
48026;SDS011;50714;49.208;5.364;2023-10-09T04:36:34;1.40;;;1.15;;
48026;SDS011;50714;49.208;5.364;2023-10-09T04:46:46;1.23;;;1.13;;
48026;SDS011;50714;49.208;5.364;2023-10-09T04:57:05;1.50;;;1.10;;
48026;SDS011;50714;49.208;5.364;2023-10-09T05:07:17;0.88;;;0.88;;
48026;SDS011;50714;49.208;5.364;2023-10-09T05:17:24;1.13;;;1.02;;
48026;SDS011;50714;49.208;5.364;2023-10-09T05:27:25;1.58;;;1.20;;
48026;SDS011;50714;49.208;5.364;2023-10-09T05:37:46;1.10;;;1.00;;
48026;SDS011;50714;49.208;5.364;2023-10-09T05:47:47;1.17;;;1.08;;
48026;SDS011;50714;49.208;5.364;2023-10-09T05:57:55;3.55;;;1.30;;
48026;SDS011;50714;49.208;5.364;2023-10-09T06:08:14;1.77;;;1.27;;
48026;SDS011;50714;49.208;5.364;2023-10-09T06:18:24;1.70;;;1.60;;
48026;SDS011;50714;49.208;5.364;2023-10-09T06:28:33;1.95;;;1.23;;
48026;SDS011;50714;49.208;5.364;2023-10-09T06:38:33;2.75;;;1.17;;
48026;SDS011;50714;49.208;5.364;2023-10-09T06:48:52;1.98;;;1.55;;
48026;SDS011;50714;49.208;5.364;2023-10-09T06:59:00;2.50;;;1.65;;
48026;SDS011;50714;49.208;5.364;2023-10-09T07:09:16;3.33;;;1.77;;
48026;SDS011;50714;49.208;5.364;2023-10-09T07:19:19;2.47;;;1.60;;
48026;SDS011;50714;49.208;5.364;2023-10-09T07:29:34;1.42;;;1.30;;
48026;SDS011;50714;49.208;5.364;2023-10-09T07:39:47;2.03;;;1.50;;
48026;SDS011;50714;49.208;5.364;2023-10-09T07:49:56;1.98;;;1.65;;
48026;SDS011;50714;49.208;5.364;2023-10-09T07:59:59;2.33;;;1.75;;
48026;SDS011;50714;49.208;5.364;2023-10-09T08:10:11;3.35;;;1.92;;
48026;SDS011;50714;49.208;5.364;2023-10-09T08:20:18;2.60;;;1.73;;
48026;SDS011;50714;49.208;5.364;2023-10-09T08:30:25;3.05;;;2.08;;
48026;SDS011;50714;49.208;5.364;2023-10-09T08:40:29;3.80;;;2.40;;
48026;SDS011;50714;49.208;5.364;2023-10-09T09:00:34;2.78;;;2.20;;
48026;SDS011;50714;49.208;5.364;2023-10-09T09:10:35;4.05;;;2.50;;
48026;SDS011;50714;49.208;5.364;2023-10-09T09:20:35;3.90;;;2.28;;
48026;SDS011;50714;49.208;5.364;2023-10-09T09:30:45;4.47;;;2.20;;
48026;SDS011;50714;49.208;5.364;2023-10-09T09:40:51;3.67;;;2.22;;
48026;SDS011;50714;49.208;5.364;2023-10-09T09:50:54;4.45;;;2.28;;
48026;SDS011;50714;49.208;5.364;2023-10-09T10:00:56;3.38;;;1.83;;
48026;SDS011;50714;49.208;5.364;2023-10-09T10:21:46;4.53;;;2.20;;
48026;SDS011;50714;49.208;5.364;2023-10-09T10:31:53;4.40;;;1.95;;
48026;SDS011;50714;49.208;5.364;2023-10-09T10:42:01;5.18;;;1.95;;
48026;SDS011;50714;49.208;5.364;2023-10-09T10:52:05;4.00;;;2.08;;
48026;SDS011;50714;49.208;5.364;2023-10-09T11:02:19;3.63;;;2.03;;
48026;SDS011;50714;49.208;5.364;2023-10-09T11:12:28;3.35;;;1.83;;
48026;SDS011;50714;49.208;5.364;2023-10-09T11:23:07;3.63;;;1.98;;
48026;SDS011;50714;49.208;5.364;2023-10-09T11:33:11;3.90;;;2.08;;
48026;SDS011;50714;49.208;5.364;2023-10-09T11:43:14;2.92;;;1.85;;
48026;SDS011;50714;49.208;5.364;2023-10-09T11:53:14;4.28;;;2.38;;
48026;SDS011;50714;49.208;5.364;2023-10-09T12:03:19;3.70;;;2.17;;
48026;SDS011;50714;49.208;5.364;2023-10-09T12:13:23;4.22;;;2.40;;
48026;SDS011;50714;49.208;5.364;2023-10-09T12:23:24;3.03;;;1.70;;
48026;SDS011;50714;49.208;5.364;2023-10-09T12:33:28;2.92;;;1.80;;
48026;SDS011;50714;49.208;5.364;2023-10-09T12:43:29;3.15;;;1.83;;
48026;SDS011;50714;49.208;5.364;2023-10-09T12:53:30;3.63;;;2.35;;
48026;SDS011;50714;49.208;5.364;2023-10-09T13:03:30;3.58;;;2.03;;
48026;SDS011;50714;49.208;5.364;2023-10-09T13:13:32;2.47;;;1.60;;
48026;SDS011;50714;49.208;5.364;2023-10-09T13:23:47;2.30;;;1.48;;
48026;SDS011;50714;49.208;5.364;2023-10-09T13:33:50;2.78;;;1.88;;
48026;SDS011;50714;49.208;5.364;2023-10-09T13:43:54;2.47;;;1.23;;
48026;SDS011;50714;49.208;5.364;2023-10-09T13:53:56;1.70;;;1.20;;
48026;SDS011;50714;49.208;5.364;2023-10-09T14:03:57;1.77;;;1.10;;
48026;SDS011;50714;49.208;5.364;2023-10-09T14:13:58;2.85;;;1.77;;
48026;SDS011;50714;49.208;5.364;2023-10-09T14:24:02;1.90;;;1.23;;
48026;SDS011;50714;49.208;5.364;2023-10-09T14:34:02;3.67;;;1.50;;
48026;SDS011;50714;49.208;5.364;2023-10-09T14:44:03;2.38;;;1.45;;
48026;SDS011;50714;49.208;5.364;2023-10-09T14:54:04;3.40;;;2.15;;
48026;SDS011;50714;49.208;5.364;2023-10-09T15:04:07;2.30;;;1.27;;
48026;SDS011;50714;49.208;5.364;2023-10-09T15:14:13;5.63;;;2.30;;
48026;SDS011;50714;49.208;5.364;2023-10-09T15:24:15;4.28;;;2.10;;
48026;SDS011;50714;49.208;5.364;2023-10-09T15:34:16;4.45;;;2.13;;
48026;SDS011;50714;49.208;5.364;2023-10-09T15:44:18;3.42;;;2.10;;
48026;SDS011;50714;49.208;5.364;2023-10-09T15:54:19;3.08;;;2.03;;
48026;SDS011;50714;49.208;5.364;2023-10-09T16:04:19;3.55;;;1.98;;
48026;SDS011;50714;49.208;5.364;2023-10-09T16:14:19;4.45;;;2.10;;
48026;SDS011;50714;49.208;5.364;2023-10-09T16:24:20;4.13;;;2.30;;
48026;SDS011;50714;49.208;5.364;2023-10-09T16:34:20;3.53;;;2.30;;
48026;SDS011;50714;49.208;5.364;2023-10-09T16:44:20;3.83;;;1.92;;
48026;SDS011;50714;49.208;5.364;2023-10-09T16:54:21;3.70;;;2.15;;
48026;SDS011;50714;49.208;5.364;2023-10-09T17:04:21;6.20;;;4.18;;
48026;SDS011;50714;49.208;5.364;2023-10-09T17:14:23;4.50;;;3.15;;
48026;SDS011;50714;49.208;5.364;2023-10-09T17:24:26;5.72;;;3.70;;
48026;SDS011;50714;49.208;5.364;2023-10-09T17:34:27;5.57;;;3.58;;
48026;SDS011;50714;49.208;5.364;2023-10-09T17:44:27;6.15;;;3.72;;
48026;SDS011;50714;49.208;5.364;2023-10-09T17:54:27;3.85;;;2.67;;
48026;SDS011;50714;49.208;5.364;2023-10-09T18:04:28;4.22;;;2.63;;
48026;SDS011;50714;49.208;5.364;2023-10-09T18:14:35;6.20;;;2.80;;
48026;SDS011;50714;49.208;5.364;2023-10-09T18:24:35;5.20;;;2.80;;
48026;SDS011;50714;49.208;5.364;2023-10-09T18:34:40;4.57;;;2.13;;
48026;SDS011;50714;49.208;5.364;2023-10-09T18:44:41;3.90;;;2.25;;
48026;SDS011;50714;49.208;5.364;2023-10-09T18:54:43;3.92;;;2.33;;
48026;SDS011;50714;49.208;5.364;2023-10-09T19:04:44;4.70;;;2.55;;
48026;SDS011;50714;49.208;5.364;2023-10-09T19:14:44;3.93;;;2.57;;
48026;SDS011;50714;49.208;5.364;2023-10-09T19:24:45;4.20;;;2.45;;
48026;SDS011;50714;49.208;5.364;2023-10-09T19:34:47;5.95;;;2.95;;
48026;SDS011;50714;49.208;5.364;2023-10-09T19:44:47;5.88;;;2.70;;
48026;SDS011;50714;49.208;5.364;2023-10-09T19:54:48;4.72;;;2.72;;
48026;SDS011;50714;49.208;5.364;2023-10-09T20:04:48;4.55;;;2.58;;
48026;SDS011;50714;49.208;5.364;2023-10-09T20:14:50;4.65;;;2.80;;
48026;SDS011;50714;49.208;5.364;2023-10-09T20:24:51;4.63;;;2.90;;
48026;SDS011;50714;49.208;5.364;2023-10-09T20:34:51;4.15;;;2.58;;
48026;SDS011;50714;49.208;5.364;2023-10-09T20:44:56;4.60;;;2.85;;
48026;SDS011;50714;49.208;5.364;2023-10-09T20:54:57;4.55;;;2.67;;
48026;SDS011;50714;49.208;5.364;2023-10-09T21:04:57;3.20;;;2.30;;
48026;SDS011;50714;49.208;5.364;2023-10-09T21:14:58;4.38;;;2.70;;
48026;SDS011;50714;49.208;5.364;2023-10-09T21:25:01;5.60;;;2.85;;
48026;SDS011;50714;49.208;5.364;2023-10-09T21:35:01;4.88;;;2.67;;
48026;SDS011;50714;49.208;5.364;2023-10-09T21:45:01;3.45;;;2.38;;
48026;SDS011;50714;49.208;5.364;2023-10-09T21:55:02;3.58;;;2.53;;
48026;SDS011;50714;49.208;5.364;2023-10-09T22:05:04;3.88;;;2.45;;
48026;SDS011;50714;49.208;5.364;2023-10-09T22:15:09;3.55;;;2.42;;
48026;SDS011;50714;49.208;5.364;2023-10-09T22:25:14;3.45;;;2.33;;
48026;SDS011;50714;49.208;5.364;2023-10-09T22:35:16;3.88;;;2.33;;
48026;SDS011;50714;49.208;5.364;2023-10-09T22:45:18;3.67;;;2.15;;
48026;SDS011;50714;49.208;5.364;2023-10-09T22:55:30;4.90;;;2.92;;
48026;SDS011;50714;49.208;5.364;2023-10-09T23:05:31;4.85;;;2.75;;
48026;SDS011;50714;49.208;5.364;2023-10-09T23:15:32;5.50;;;2.70;;
48026;SDS011;50714;49.208;5.364;2023-10-09T23:25:34;5.07;;;3.00;;
48026;SDS011;50714;49.208;5.364;2023-10-09T23:35:35;4.22;;;2.80;;
48026;SDS011;50714;49.208;5.364;2023-10-09T23:45:47;4.28;;;2.65;;
48026;SDS011;50714;49.208;5.364;2023-10-09T23:55:57;3.90;;;2.53;;
